sensor_id;sensor_type;location;lat;lon;timestamp;temperature;humidity
25208;DHT22;13153;52.316;21.166;2023-03-01T00:01:21;-1.00;99.90
25208;DHT22;13153;52.316;21.166;2023-03-01T00:03:50;-1.10;99.90
25208;DHT22;13153;52.316;21.166;2023-03-01T00:06:17;-1.10;99.90
25208;DHT22;13153;52.316;21.166;2023-03-01T00:08:43;-1.10;99.90
25208;DHT22;13153;52.316;21.166;2023-03-01T00:13:45;-1.10;99.90
25208;DHT22;13153;52.316;21.166;2023-03-01T00:16:18;-1.10;99.90
25208;DHT22;13153;52.316;21.166;2023-03-01T00:18:56;-1.10;99.90
25208;DHT22;13153;52.316;21.166;2023-03-01T00:21:23;-1.10;99.90
25208;DHT22;13153;52.316;21.166;2023-03-01T00:23:50;-1.10;99.90
25208;DHT22;13153;52.316;21.166;2023-03-01T00:26:18;-1.10;99.90
25208;DHT22;13153;52.316;21.166;2023-03-01T00:28:45;-1.10;99.90
25208;DHT22;13153;52.316;21.166;2023-03-01T00:31:14;-1.00;99.90
25208;DHT22;13153;52.316;21.166;2023-03-01T00:33:43;-1.00;99.90
25208;DHT22;13153;52.316;21.166;2023-03-01T00:36:10;-1.00;99.90
25208;DHT22;13153;52.316;21.166;2023-03-01T00:38:41;-1.00;99.90
25208;DHT22;13153;52.316;21.166;2023-03-01T00:41:13;-1.00;99.90
25208;DHT22;13153;52.316;21.166;2023-03-01T00:43:41;-0.90;99.90
25208;DHT22;13153;52.316;21.166;2023-03-01T00:46:13;-1.00;99.90
25208;DHT22;13153;52.316;21.166;2023-03-01T00:48:43;-1.00;99.90
25208;DHT22;13153;52.316;21.166;2023-03-01T00:51:12;-0.90;99.90
25208;DHT22;13153;52.316;21.166;2023-03-01T00:53:40;-0.90;99.90
25208;DHT22;13153;52.316;21.166;2023-03-01T00:56:09;-0.90;99.90
25208;DHT22;13153;52.316;21.166;2023-03-01T00:58:36;-0.90;99.90
25208;DHT22;13153;52.316;21.166;2023-03-01T01:01:29;-0.90;99.90
25208;DHT22;13153;52.316;21.166;2023-03-01T01:04:04;-0.90;99.90
25208;DHT22;13153;52.316;21.166;2023-03-01T01:06:43;-0.90;99.90
25208;DHT22;13153;52.316;21.166;2023-03-01T01:09:14;-0.90;99.90
25208;DHT22;13153;52.316;21.166;2023-03-01T01:11:46;-0.90;99.90
25208;DHT22;13153;52.316;21.166;2023-03-01T01:14:14;-0.90;99.90
25208;DHT22;13153;52.316;21.166;2023-03-01T01:16:40;-0.80;99.90
25208;DHT22;13153;52.316;21.166;2023-03-01T01:19:06;-0.90;99.90
25208;DHT22;13153;52.316;21.166;2023-03-01T01:21:33;-0.80;99.90
25208;DHT22;13153;52.316;21.166;2023-03-01T01:23:58;-0.80;99.90
25208;DHT22;13153;52.316;21.166;2023-03-01T01:26:29;-0.80;99.90
25208;DHT22;13153;52.316;21.166;2023-03-01T01:28:58;-0.80;99.90
25208;DHT22;13153;52.316;21.166;2023-03-01T01:31:25;-0.80;99.90
25208;DHT22;13153;52.316;21.166;2023-03-01T01:33:52;-0.80;99.90
25208;DHT22;13153;52.316;21.166;2023-03-01T01:36:19;-0.80;99.90
25208;DHT22;13153;52.316;21.166;2023-03-01T01:38:45;-0.80;99.90
25208;DHT22;13153;52.316;21.166;2023-03-01T01:41:12;-0.80;99.90
25208;DHT22;13153;52.316;21.166;2023-03-01T01:43:44;-0.80;99.90
25208;DHT22;13153;52.316;21.166;2023-03-01T01:46:28;-0.80;99.90
25208;DHT22;13153;52.316;21.166;2023-03-01T01:49:03;-0.70;99.90
25208;DHT22;13153;52.316;21.166;2023-03-01T01:51:37;-0.70;99.90
25208;DHT22;13153;52.316;21.166;2023-03-01T01:54:09;-0.70;99.90
25208;DHT22;13153;52.316;21.166;2023-03-01T01:56:41;-0.70;99.90
25208;DHT22;13153;52.316;21.166;2023-03-01T01:59:13;-0.70;99.90
25208;DHT22;13153;52.316;21.166;2023-03-01T02:01:40;-0.70;99.90
25208;DHT22;13153;52.316;21.166;2023-03-01T02:04:06;-0.80;99.90
25208;DHT22;13153;52.316;21.166;2023-03-01T02:06:36;-0.70;99.90
25208;DHT22;13153;52.316;21.166;2023-03-01T02:09:12;-0.70;99.90
25208;DHT22;13153;52.316;21.166;2023-03-01T02:11:41;-0.60;99.90
25208;DHT22;13153;52.316;21.166;2023-03-01T02:14:09;-0.70;99.90
25208;DHT22;13153;52.316;21.166;2023-03-01T02:16:35;-0.70;99.90
25208;DHT22;13153;52.316;21.166;2023-03-01T02:19:03;-0.70;99.90
25208;DHT22;13153;52.316;21.166;2023-03-01T02:22:10;-0.80;99.90
25208;DHT22;13153;52.316;21.166;2023-03-01T02:28:10;-0.80;99.90
25208;DHT22;13153;52.316;21.166;2023-03-01T02:30:46;-0.80;99.90
25208;DHT22;13153;52.316;21.166;2023-03-01T02:33:34;-0.80;99.90
25208;DHT22;13153;52.316;21.166;2023-03-01T02:36:17;-0.80;99.90
25208;DHT22;13153;52.316;21.166;2023-03-01T02:38:46;-0.80;99.90
25208;DHT22;13153;52.316;21.166;2023-03-01T02:41:16;-0.90;99.90
25208;DHT22;13153;52.316;21.166;2023-03-01T02:43:44;-0.90;99.90
25208;DHT22;13153;52.316;21.166;2023-03-01T02:46:17;-0.90;99.90
25208;DHT22;13153;52.316;21.166;2023-03-01T02:48:54;-0.90;99.90
25208;DHT22;13153;52.316;21.166;2023-03-01T02:51:38;-0.90;99.90
25208;DHT22;13153;52.316;21.166;2023-03-01T02:57:12;-0.90;99.90
25208;DHT22;13153;52.316;21.166;2023-03-01T02:59:39;-0.90;99.90
25208;DHT22;13153;52.316;21.166;2023-03-01T03:02:22;-0.90;99.90
25208;DHT22;13153;52.316;21.166;2023-03-01T03:05:09;-0.90;99.90
25208;DHT22;13153;52.316;21.166;2023-03-01T03:07:43;-0.90;99.90
25208;DHT22;13153;52.316;21.166;2023-03-01T03:10:16;-0.90;99.90
25208;DHT22;13153;52.316;21.166;2023-03-01T03:12:55;-0.90;99.90
25208;DHT22;13153;52.316;21.166;2023-03-01T03:15:24;-0.80;99.90
25208;DHT22;13153;52.316;21.166;2023-03-01T03:17:52;-0.80;99.90
25208;DHT22;13153;52.316;21.166;2023-03-01T03:20:20;-0.80;99.90
25208;DHT22;13153;52.316;21.166;2023-03-01T03:22:50;-0.80;99.90
25208;DHT22;13153;52.316;21.166;2023-03-01T03:25:19;-0.80;99.90
25208;DHT22;13153;52.316;21.166;2023-03-01T03:27:47;-0.80;99.90
25208;DHT22;13153;52.316;21.166;2023-03-01T03:30:18;-0.80;99.90
25208;DHT22;13153;52.316;21.166;2023-03-01T03:32:46;-0.80;99.90
25208;DHT22;13153;52.316;21.166;2023-03-01T03:35:19;-0.80;99.90
25208;DHT22;13153;52.316;21.166;2023-03-01T03:37:47;-0.80;99.90
25208;DHT22;13153;52.316;21.166;2023-03-01T03:43:05;-0.80;99.90
25208;DHT22;13153;52.316;21.166;2023-03-01T03:45:33;-0.80;99.90
25208;DHT22;13153;52.316;21.166;2023-03-01T03:47:59;-0.80;99.90
25208;DHT22;13153;52.316;21.166;2023-03-01T03:50:25;-0.80;99.90
25208;DHT22;13153;52.316;21.166;2023-03-01T03:52:51;-0.80;99.90
25208;DHT22;13153;52.316;21.166;2023-03-01T03:55:18;-0.80;99.90
25208;DHT22;13153;52.316;21.166;2023-03-01T03:57:45;-0.80;99.90
25208;DHT22;13153;52.316;21.166;2023-03-01T04:00:19;-0.70;99.90
25208;DHT22;13153;52.316;21.166;2023-03-01T04:02:47;-0.80;99.90
25208;DHT22;13153;52.316;21.166;2023-03-01T04:05:16;-0.70;99.90
25208;DHT22;13153;52.316;21.166;2023-03-01T04:07:44;-0.80;99.90
25208;DHT22;13153;52.316;21.166;2023-03-01T04:10:20;-0.70;99.90
25208;DHT22;13153;52.316;21.166;2023-03-01T04:12:46;-0.80;99.90
25208;DHT22;13153;52.316;21.166;2023-03-01T04:15:12;-0.70;99.90
25208;DHT22;13153;52.316;21.166;2023-03-01T04:17:45;-0.70;99.90
25208;DHT22;13153;52.316;21.166;2023-03-01T04:20:17;-0.70;99.90
25208;DHT22;13153;52.316;21.166;2023-03-01T04:22:52;-0.70;99.90
25208;DHT22;13153;52.316;21.166;2023-03-01T04:25:25;-0.70;99.90
25208;DHT22;13153;52.316;21.166;2023-03-01T04:27:51;-0.70;99.90
25208;DHT22;13153;52.316;21.166;2023-03-01T04:30:17;-0.70;99.90
25208;DHT22;13153;52.316;21.166;2023-03-01T04:32:43;-0.80;99.90
25208;DHT22;13153;52.316;21.166;2023-03-01T04:35:09;-0.70;99.90
25208;DHT22;13153;52.316;21.166;2023-03-01T04:37:35;-0.70;99.90
25208;DHT22;13153;52.316;21.166;2023-03-01T04:40:02;-0.70;99.90
25208;DHT22;13153;52.316;21.166;2023-03-01T04:42:38;-0.80;99.90
25208;DHT22;13153;52.316;21.166;2023-03-01T04:45:05;-0.80;99.90
25208;DHT22;13153;52.316;21.166;2023-03-01T04:47:42;-0.80;99.90
25208;DHT22;13153;52.316;21.166;2023-03-01T04:50:11;-0.80;99.90
25208;DHT22;13153;52.316;21.166;2023-03-01T04:52:38;-0.80;99.90
25208;DHT22;13153;52.316;21.166;2023-03-01T04:55:05;-0.80;99.90
25208;DHT22;13153;52.316;21.166;2023-03-01T04:57:32;-0.80;99.90
25208;DHT22;13153;52.316;21.166;2023-03-01T04:59:58;-0.90;99.90
25208;DHT22;13153;52.316;21.166;2023-03-01T05:02:24;-0.80;99.90
25208;DHT22;13153;52.316;21.166;2023-03-01T05:04:49;-0.90;99.90
25208;DHT22;13153;52.316;21.166;2023-03-01T05:07:15;-0.90;99.90
25208;DHT22;13153;52.316;21.166;2023-03-01T05:09:46;-0.80;99.90
25208;DHT22;13153;52.316;21.166;2023-03-01T05:12:12;-0.80;99.90
25208;DHT22;13153;52.316;21.166;2023-03-01T05:14:39;-0.80;99.90
25208;DHT22;13153;52.316;21.166;2023-03-01T05:17:06;-0.80;99.90
25208;DHT22;13153;52.316;21.166;2023-03-01T05:19:32;-0.90;99.90
25208;DHT22;13153;52.316;21.166;2023-03-01T05:21:58;-0.80;99.90
25208;DHT22;13153;52.316;21.166;2023-03-01T05:24:28;-0.90;99.90
25208;DHT22;13153;52.316;21.166;2023-03-01T05:26:59;-0.90;99.90
25208;DHT22;13153;52.316;21.166;2023-03-01T05:29:26;-0.90;99.90
25208;DHT22;13153;52.316;21.166;2023-03-01T05:31:55;-0.90;99.90
25208;DHT22;13153;52.316;21.166;2023-03-01T05:34:34;-0.90;99.90
25208;DHT22;13153;52.316;21.166;2023-03-01T05:37:02;-0.80;99.90
25208;DHT22;13153;52.316;21.166;2023-03-01T05:39:29;-0.80;99.90
25208;DHT22;13153;52.316;21.166;2023-03-01T05:41:57;-0.70;99.90
25208;DHT22;13153;52.316;21.166;2023-03-01T05:44:25;-0.70;99.90
25208;DHT22;13153;52.316;21.166;2023-03-01T05:46:52;-0.60;99.90
25208;DHT22;13153;52.316;21.166;2023-03-01T05:49:18;-0.60;99.90
25208;DHT22;13153;52.316;21.166;2023-03-01T05:51:48;-0.50;99.90
25208;DHT22;13153;52.316;21.166;2023-03-01T05:54:15;-0.40;99.90
25208;DHT22;13153;52.316;21.166;2023-03-01T05:56:43;-0.40;99.90
25208;DHT22;13153;52.316;21.166;2023-03-01T05:59:09;-0.30;99.90
25208;DHT22;13153;52.316;21.166;2023-03-01T06:01:36;-0.30;99.90
25208;DHT22;13153;52.316;21.166;2023-03-01T06:04:03;-0.20;99.90
25208;DHT22;13153;52.316;21.166;2023-03-01T06:06:33;-0.10;99.90
25208;DHT22;13153;52.316;21.166;2023-03-01T06:09:00;0.00;99.90
25208;DHT22;13153;52.316;21.166;2023-03-01T06:11:26;0.20;99.90
25208;DHT22;13153;52.316;21.166;2023-03-01T06:13:51;0.40;99.90
25208;DHT22;13153;52.316;21.166;2023-03-01T06:16:17;0.50;99.90
25208;DHT22;13153;52.316;21.166;2023-03-01T06:18:43;0.60;99.90
25208;DHT22;13153;52.316;21.166;2023-03-01T06:21:09;0.80;99.90
25208;DHT22;13153;52.316;21.166;2023-03-01T06:23:35;1.00;99.90
25208;DHT22;13153;52.316;21.166;2023-03-01T06:26:04;1.10;99.90
25208;DHT22;13153;52.316;21.166;2023-03-01T06:28:32;1.30;99.90
25208;DHT22;13153;52.316;21.166;2023-03-01T06:30:58;1.50;99.90
25208;DHT22;13153;52.316;21.166;2023-03-01T06:33:23;1.70;99.90
25208;DHT22;13153;52.316;21.166;2023-03-01T06:35:50;1.80;99.90
25208;DHT22;13153;52.316;21.166;2023-03-01T06:38:16;2.10;99.90
25208;DHT22;13153;52.316;21.166;2023-03-01T06:40:44;2.30;99.90
25208;DHT22;13153;52.316;21.166;2023-03-01T06:43:16;2.50;99.90
25208;DHT22;13153;52.316;21.166;2023-03-01T06:45:42;2.60;99.90
25208;DHT22;13153;52.316;21.166;2023-03-01T06:48:08;2.80;99.90
25208;DHT22;13153;52.316;21.166;2023-03-01T06:50:34;3.00;99.90
25208;DHT22;13153;52.316;21.166;2023-03-01T06:53:01;3.10;99.90
25208;DHT22;13153;52.316;21.166;2023-03-01T06:55:28;3.40;99.90
25208;DHT22;13153;52.316;21.166;2023-03-01T06:57:59;3.50;99.90
25208;DHT22;13153;52.316;21.166;2023-03-01T07:00:27;3.70;99.90
25208;DHT22;13153;52.316;21.166;2023-03-01T07:02:54;3.70;99.90
25208;DHT22;13153;52.316;21.166;2023-03-01T07:05:20;3.90;99.90
25208;DHT22;13153;52.316;21.166;2023-03-01T07:07:46;4.00;99.90
25208;DHT22;13153;52.316;21.166;2023-03-01T07:10:12;4.20;99.90
25208;DHT22;13153;52.316;21.166;2023-03-01T07:12:38;4.30;99.90
25208;DHT22;13153;52.316;21.166;2023-03-01T07:15:05;4.50;99.90
25208;DHT22;13153;52.316;21.166;2023-03-01T07:17:31;4.70;99.90
25208;DHT22;13153;52.316;21.166;2023-03-01T07:19:57;4.80;99.90
25208;DHT22;13153;52.316;21.166;2023-03-01T07:22:23;4.80;99.90
25208;DHT22;13153;52.316;21.166;2023-03-01T07:24:49;5.00;99.90
25208;DHT22;13153;52.316;21.166;2023-03-01T07:27:14;5.10;99.90
25208;DHT22;13153;52.316;21.166;2023-03-01T07:29:40;5.20;99.90
25208;DHT22;13153;52.316;21.166;2023-03-01T07:32:06;5.30;99.90
25208;DHT22;13153;52.316;21.166;2023-03-01T07:34:36;5.40;99.90
25208;DHT22;13153;52.316;21.166;2023-03-01T07:37:02;5.60;99.90
25208;DHT22;13153;52.316;21.166;2023-03-01T07:39:27;5.70;99.90
25208;DHT22;13153;52.316;21.166;2023-03-01T07:41:53;5.80;99.90
25208;DHT22;13153;52.316;21.166;2023-03-01T07:44:19;5.90;99.90
25208;DHT22;13153;52.316;21.166;2023-03-01T07:46:45;6.00;99.90
25208;DHT22;13153;52.316;21.166;2023-03-01T07:49:11;6.20;99.90
25208;DHT22;13153;52.316;21.166;2023-03-01T07:51:37;6.20;99.90
25208;DHT22;13153;52.316;21.166;2023-03-01T07:54:02;6.40;99.90
25208;DHT22;13153;52.316;21.166;2023-03-01T07:56:28;6.50;99.90
25208;DHT22;13153;52.316;21.166;2023-03-01T07:58:54;6.60;99.90
25208;DHT22;13153;52.316;21.166;2023-03-01T08:01:22;6.60;99.90
25208;DHT22;13153;52.316;21.166;2023-03-01T08:03:48;6.60;99.90
25208;DHT22;13153;52.316;21.166;2023-03-01T08:06:16;6.60;99.90
25208;DHT22;13153;52.316;21.166;2023-03-01T08:08:43;6.60;99.90
25208;DHT22;13153;52.316;21.166;2023-03-01T08:11:11;6.70;99.90
25208;DHT22;13153;52.316;21.166;2023-03-01T08:13:39;6.90;99.90
25208;DHT22;13153;52.316;21.166;2023-03-01T08:16:07;7.00;99.90
25208;DHT22;13153;52.316;21.166;2023-03-01T08:18:38;7.00;99.90
25208;DHT22;13153;52.316;21.166;2023-03-01T08:21:05;7.10;99.90
25208;DHT22;13153;52.316;21.166;2023-03-01T08:23:32;7.20;99.90
25208;DHT22;13153;52.316;21.166;2023-03-01T08:26:06;7.20;99.90
25208;DHT22;13153;52.316;21.166;2023-03-01T08:28:37;7.20;99.90
25208;DHT22;13153;52.316;21.166;2023-03-01T08:31:37;7.30;99.90
25208;DHT22;13153;52.316;21.166;2023-03-01T08:34:08;7.30;99.90
25208;DHT22;13153;52.316;21.166;2023-03-01T08:36:39;7.30;99.90
25208;DHT22;13153;52.316;21.166;2023-03-01T08:39:08;7.40;99.90
25208;DHT22;13153;52.316;21.166;2023-03-01T08:41:35;7.40;99.90
25208;DHT22;13153;52.316;21.166;2023-03-01T08:44:01;7.60;99.90
25208;DHT22;13153;52.316;21.166;2023-03-01T08:46:29;7.70;99.90
25208;DHT22;13153;52.316;21.166;2023-03-01T08:48:57;7.90;99.90
25208;DHT22;13153;52.316;21.166;2023-03-01T08:51:24;7.80;99.90
25208;DHT22;13153;52.316;21.166;2023-03-01T08:53:51;7.80;99.90
25208;DHT22;13153;52.316;21.166;2023-03-01T08:56:18;7.80;99.90
25208;DHT22;13153;52.316;21.166;2023-03-01T08:58:48;7.80;99.90
25208;DHT22;13153;52.316;21.166;2023-03-01T09:01:17;7.80;99.90
25208;DHT22;13153;52.316;21.166;2023-03-01T09:03:44;7.90;99.90
25208;DHT22;13153;52.316;21.166;2023-03-01T09:06:11;8.00;99.90
25208;DHT22;13153;52.316;21.166;2023-03-01T09:08:44;8.10;99.90
25208;DHT22;13153;52.316;21.166;2023-03-01T09:11:13;8.20;99.90
25208;DHT22;13153;52.316;21.166;2023-03-01T09:13:42;8.20;99.90
25208;DHT22;13153;52.316;21.166;2023-03-01T09:16:09;8.20;99.90
25208;DHT22;13153;52.316;21.166;2023-03-01T09:18:36;8.10;99.90
25208;DHT22;13153;52.316;21.166;2023-03-01T09:21:08;8.00;99.90
25208;DHT22;13153;52.316;21.166;2023-03-01T09:23:40;7.80;99.90
25208;DHT22;13153;52.316;21.166;2023-03-01T09:26:13;7.60;99.90
25208;DHT22;13153;52.316;21.166;2023-03-01T09:28:50;7.50;99.90
25208;DHT22;13153;52.316;21.166;2023-03-01T09:31:23;7.50;99.90
25208;DHT22;13153;52.316;21.166;2023-03-01T09:33:52;7.40;99.90
25208;DHT22;13153;52.316;21.166;2023-03-01T09:36:23;7.40;99.90
25208;DHT22;13153;52.316;21.166;2023-03-01T09:38:51;7.60;99.90
25208;DHT22;13153;52.316;21.166;2023-03-01T09:44:27;7.90;99.90
25208;DHT22;13153;52.316;21.166;2023-03-01T09:46:59;8.00;99.90
25208;DHT22;13153;52.316;21.166;2023-03-01T09:49:28;8.10;99.90
25208;DHT22;13153;52.316;21.166;2023-03-01T09:54:54;8.10;99.90
25208;DHT22;13153;52.316;21.166;2023-03-01T09:57:38;8.20;99.90
25208;DHT22;13153;52.316;21.166;2023-03-01T10:03:01;8.30;99.90
25208;DHT22;13153;52.316;21.166;2023-03-01T10:11:24;8.60;99.90
25208;DHT22;13153;52.316;21.166;2023-03-01T10:19:32;8.80;99.90
25208;DHT22;13153;52.316;21.166;2023-03-01T10:22:16;8.80;99.90
25208;DHT22;13153;52.316;21.166;2023-03-01T10:24:47;8.90;99.90
25208;DHT22;13153;52.316;21.166;2023-03-01T10:27:44;9.00;99.90
25208;DHT22;13153;52.316;21.166;2023-03-01T10:30:40;9.00;99.90
25208;DHT22;13153;52.316;21.166;2023-03-01T10:33:17;9.00;99.90
25208;DHT22;13153;52.316;21.166;2023-03-01T10:35:48;8.90;99.90
25208;DHT22;13153;52.316;21.166;2023-03-01T10:38:15;9.00;99.90
25208;DHT22;13153;52.316;21.166;2023-03-01T10:41:06;9.00;99.90
25208;DHT22;13153;52.316;21.166;2023-03-01T10:43:48;9.00;99.90
25208;DHT22;13153;52.316;21.166;2023-03-01T10:49:16;9.10;99.90
25208;DHT22;13153;52.316;21.166;2023-03-01T10:51:49;9.00;99.90
25208;DHT22;13153;52.316;21.166;2023-03-01T10:54:21;9.00;99.90
25208;DHT22;13153;52.316;21.166;2023-03-01T10:56:56;9.00;99.90
25208;DHT22;13153;52.316;21.166;2023-03-01T11:02:28;9.00;99.90
25208;DHT22;13153;52.316;21.166;2023-03-01T11:05:13;8.90;99.90
25208;DHT22;13153;52.316;21.166;2023-03-01T11:07:56;8.90;99.90
25208;DHT22;13153;52.316;21.166;2023-03-01T11:10:32;8.90;99.90
25208;DHT22;13153;52.316;21.166;2023-03-01T11:13:17;8.90;99.90
25208;DHT22;13153;52.316;21.166;2023-03-01T11:16:02;8.80;99.90
25208;DHT22;13153;52.316;21.166;2023-03-01T11:18:31;8.80;99.90
25208;DHT22;13153;52.316;21.166;2023-03-01T11:20:58;8.80;99.90
25208;DHT22;13153;52.316;21.166;2023-03-01T11:23:29;8.80;99.90
25208;DHT22;13153;52.316;21.166;2023-03-01T11:26:04;8.70;99.90
25208;DHT22;13153;52.316;21.166;2023-03-01T11:28:36;8.60;99.90
25208;DHT22;13153;52.316;21.166;2023-03-01T11:31:07;8.60;99.90
25208;DHT22;13153;52.316;21.166;2023-03-01T11:33:48;8.60;99.90
25208;DHT22;13153;52.316;21.166;2023-03-01T11:39:26;8.50;99.90
25208;DHT22;13153;52.316;21.166;2023-03-01T11:42:15;8.50;99.90
25208;DHT22;13153;52.316;21.166;2023-03-01T11:44:49;8.50;99.90
25208;DHT22;13153;52.316;21.166;2023-03-01T11:47:55;8.50;99.90
25208;DHT22;13153;52.316;21.166;2023-03-01T11:50:42;8.50;99.90
25208;DHT22;13153;52.316;21.166;2023-03-01T11:56:34;8.50;99.90
25208;DHT22;13153;52.316;21.166;2023-03-01T11:59:21;8.50;99.90
25208;DHT22;13153;52.316;21.166;2023-03-01T12:04:50;8.40;99.90
25208;DHT22;13153;52.316;21.166;2023-03-01T12:07:55;8.40;99.90
25208;DHT22;13153;52.316;21.166;2023-03-01T12:10:54;8.40;99.90
25208;DHT22;13153;52.316;21.166;2023-03-01T12:13:59;8.40;99.90
25208;DHT22;13153;52.316;21.166;2023-03-01T12:37:35;8.20;99.90
25208;DHT22;13153;52.316;21.166;2023-03-01T12:42:56;8.20;99.90
25208;DHT22;13153;52.316;21.166;2023-03-01T12:46:27;8.30;99.90
25208;DHT22;13153;52.316;21.166;2023-03-01T12:49:37;8.20;99.90
25208;DHT22;13153;52.316;21.166;2023-03-01T12:52:18;8.20;99.90
25208;DHT22;13153;52.316;21.166;2023-03-01T12:54:56;8.30;99.90
25208;DHT22;13153;52.316;21.166;2023-03-01T12:57:42;8.30;99.90
25208;DHT22;13153;52.316;21.166;2023-03-01T13:00:37;8.30;99.90
25208;DHT22;13153;52.316;21.166;2023-03-01T13:09:40;8.30;99.90
25208;DHT22;13153;52.316;21.166;2023-03-01T13:12:44;8.20;99.90
25208;DHT22;13153;52.316;21.166;2023-03-01T13:15:25;8.20;99.90
25208;DHT22;13153;52.316;21.166;2023-03-01T13:18:01;8.20;99.90
25208;DHT22;13153;52.316;21.166;2023-03-01T13:26:16;8.20;99.90
25208;DHT22;13153;52.316;21.166;2023-03-01T13:28:54;8.20;99.90
25208;DHT22;13153;52.316;21.166;2023-03-01T13:33:55;8.20;99.90
25208;DHT22;13153;52.316;21.166;2023-03-01T13:46:45;8.40;99.90
25208;DHT22;13153;52.316;21.166;2023-03-01T13:49:19;8.40;99.90
25208;DHT22;13153;52.316;21.166;2023-03-01T13:51:51;8.50;99.90
25208;DHT22;13153;52.316;21.166;2023-03-01T13:54:26;8.50;99.90
25208;DHT22;13153;52.316;21.166;2023-03-01T13:56:57;8.50;99.90
25208;DHT22;13153;52.316;21.166;2023-03-01T13:59:25;8.50;99.90
25208;DHT22;13153;52.316;21.166;2023-03-01T14:01:56;8.40;99.90
25208;DHT22;13153;52.316;21.166;2023-03-01T14:04:34;8.40;99.90
25208;DHT22;13153;52.316;21.166;2023-03-01T14:07:21;8.40;99.90
25208;DHT22;13153;52.316;21.166;2023-03-01T14:09:56;8.30;99.90
25208;DHT22;13153;52.316;21.166;2023-03-01T14:15:35;8.30;99.90
25208;DHT22;13153;52.316;21.166;2023-03-01T14:20:48;8.20;99.90
25208;DHT22;13153;52.316;21.166;2023-03-01T14:23:22;8.10;99.90
25208;DHT22;13153;52.316;21.166;2023-03-01T14:25:53;8.10;99.90
25208;DHT22;13153;52.316;21.166;2023-03-01T14:31:00;8.00;99.90
25208;DHT22;13153;52.316;21.166;2023-03-01T14:33:35;8.00;99.90
25208;DHT22;13153;52.316;21.166;2023-03-01T14:36:06;7.90;99.90
25208;DHT22;13153;52.316;21.166;2023-03-01T14:38:42;7.90;99.90
25208;DHT22;13153;52.316;21.166;2023-03-01T14:41:21;7.80;99.90
25208;DHT22;13153;52.316;21.166;2023-03-01T14:44:01;7.80;99.90
25208;DHT22;13153;52.316;21.166;2023-03-01T14:46:38;7.80;99.90
25208;DHT22;13153;52.316;21.166;2023-03-01T14:52:02;7.80;99.90
25208;DHT22;13153;52.316;21.166;2023-03-01T14:55:02;7.80;99.90
25208;DHT22;13153;52.316;21.166;2023-03-01T14:57:43;7.70;99.90
25208;DHT22;13153;52.316;21.166;2023-03-01T15:00:17;7.70;99.90
25208;DHT22;13153;52.316;21.166;2023-03-01T15:02:51;7.70;99.90
25208;DHT22;13153;52.316;21.166;2023-03-01T15:05:26;7.70;99.90
25208;DHT22;13153;52.316;21.166;2023-03-01T15:07:58;7.70;99.90
25208;DHT22;13153;52.316;21.166;2023-03-01T15:10:32;7.70;99.90
25208;DHT22;13153;52.316;21.166;2023-03-01T15:13:13;7.60;99.90
25208;DHT22;13153;52.316;21.166;2023-03-01T15:15:44;7.60;99.90
25208;DHT22;13153;52.316;21.166;2023-03-01T15:20:39;7.50;99.90
25208;DHT22;13153;52.316;21.166;2023-03-01T15:23:05;7.50;99.90
25208;DHT22;13153;52.316;21.166;2023-03-01T15:25:32;7.40;99.90
25208;DHT22;13153;52.316;21.166;2023-03-01T15:28:00;7.40;99.90
25208;DHT22;13153;52.316;21.166;2023-03-01T15:30:33;7.40;99.90
25208;DHT22;13153;52.316;21.166;2023-03-01T15:33:28;7.30;99.90
25208;DHT22;13153;52.316;21.166;2023-03-01T15:36:02;7.30;99.90
25208;DHT22;13153;52.316;21.166;2023-03-01T15:38:57;7.30;99.90
25208;DHT22;13153;52.316;21.166;2023-03-01T15:41:47;7.30;99.90
25208;DHT22;13153;52.316;21.166;2023-03-01T15:44:17;7.20;99.90
25208;DHT22;13153;52.316;21.166;2023-03-01T15:46:53;7.10;99.90
25208;DHT22;13153;52.316;21.166;2023-03-01T15:49:42;7.10;99.90
25208;DHT22;13153;52.316;21.166;2023-03-01T15:52:26;7.00;99.90
25208;DHT22;13153;52.316;21.166;2023-03-01T15:55:17;6.90;99.90
25208;DHT22;13153;52.316;21.166;2023-03-01T15:57:45;6.90;99.90
25208;DHT22;13153;52.316;21.166;2023-03-01T16:00:12;6.90;99.90
25208;DHT22;13153;52.316;21.166;2023-03-01T16:02:41;6.80;99.90
25208;DHT22;13153;52.316;21.166;2023-03-01T16:07:45;6.70;99.90
25208;DHT22;13153;52.316;21.166;2023-03-01T16:10:11;6.60;99.90
25208;DHT22;13153;52.316;21.166;2023-03-01T16:12:36;6.50;99.90
25208;DHT22;13153;52.316;21.166;2023-03-01T16:15:07;6.50;99.90
25208;DHT22;13153;52.316;21.166;2023-03-01T16:17:48;6.40;99.90
25208;DHT22;13153;52.316;21.166;2023-03-01T16:20:14;6.30;99.90
25208;DHT22;13153;52.316;21.166;2023-03-01T16:22:44;6.30;99.90
25208;DHT22;13153;52.316;21.166;2023-03-01T16:25:15;6.20;99.90
25208;DHT22;13153;52.316;21.166;2023-03-01T16:27:44;6.20;99.90
25208;DHT22;13153;52.316;21.166;2023-03-01T16:30:13;6.10;99.90
25208;DHT22;13153;52.316;21.166;2023-03-01T16:32:42;6.10;99.90
25208;DHT22;13153;52.316;21.166;2023-03-01T16:35:12;6.00;99.90
25208;DHT22;13153;52.316;21.166;2023-03-01T16:37:39;5.90;99.90
25208;DHT22;13153;52.316;21.166;2023-03-01T16:40:07;5.90;99.90
25208;DHT22;13153;52.316;21.166;2023-03-01T16:42:48;5.90;99.90
25208;DHT22;13153;52.316;21.166;2023-03-01T16:45:16;5.80;99.90
25208;DHT22;13153;52.316;21.166;2023-03-01T16:47:42;5.80;99.90
25208;DHT22;13153;52.316;21.166;2023-03-01T16:50:09;5.80;99.90
25208;DHT22;13153;52.316;21.166;2023-03-01T16:52:35;5.80;99.90
25208;DHT22;13153;52.316;21.166;2023-03-01T16:55:06;5.70;99.90
25208;DHT22;13153;52.316;21.166;2023-03-01T16:57:35;5.60;99.90
25208;DHT22;13153;52.316;21.166;2023-03-01T17:00:07;5.60;99.90
25208;DHT22;13153;52.316;21.166;2023-03-01T17:02:38;5.50;99.90
25208;DHT22;13153;52.316;21.166;2023-03-01T17:05:07;5.50;99.90
25208;DHT22;13153;52.316;21.166;2023-03-01T17:07:34;5.40;99.90
25208;DHT22;13153;52.316;21.166;2023-03-01T17:10:00;5.40;99.90
25208;DHT22;13153;52.316;21.166;2023-03-01T17:12:27;5.40;99.90
25208;DHT22;13153;52.316;21.166;2023-03-01T17:14:53;5.30;99.90
25208;DHT22;13153;52.316;21.166;2023-03-01T17:17:19;5.30;99.90
25208;DHT22;13153;52.316;21.166;2023-03-01T17:19:46;5.30;99.90
25208;DHT22;13153;52.316;21.166;2023-03-01T17:22:12;5.30;99.90
25208;DHT22;13153;52.316;21.166;2023-03-01T17:24:42;5.20;99.90
25208;DHT22;13153;52.316;21.166;2023-03-01T17:27:09;5.20;99.90
25208;DHT22;13153;52.316;21.166;2023-03-01T17:29:37;5.10;99.90
25208;DHT22;13153;52.316;21.166;2023-03-01T17:32:04;5.10;99.90
25208;DHT22;13153;52.316;21.166;2023-03-01T17:34:31;5.10;99.90
25208;DHT22;13153;52.316;21.166;2023-03-01T17:36:58;5.00;99.90
25208;DHT22;13153;52.316;21.166;2023-03-01T17:39:24;4.90;99.90
25208;DHT22;13153;52.316;21.166;2023-03-01T17:41:55;4.90;99.90
25208;DHT22;13153;52.316;21.166;2023-03-01T17:44:22;4.90;99.90
25208;DHT22;13153;52.316;21.166;2023-03-01T17:46:48;4.90;99.90